Time,TemperatureF,DewpointF,PressureIn,WindDirection,WindDirectionDegrees,WindSpeedMPH,WindSpeedGustMPH,Humidity,HourlyPrecipIn,Conditions,Clouds,dailyrainin,SoftwareType,DateUTC
2013-07-24 00:00:00,60.1,17.6,28.94,NNW,333,0.0,4.0,19,0.00,CLR,,0.00,WeatherDisplay:10.37,2013-07-24 04:00:00,
2013-07-24 00:15:00,59.5,20.6,28.94,NNW,332,2.0,6.0,22,0.00,CLR,,0.00,WeatherDisplay:10.37,2013-07-24 04:15:00,
2013-07-24 00:20:00,59.5,22.7,28.94,NNW,330,2.0,6.0,24,0.00,CLR,,0.00,WeatherDisplay:10.37,2013-07-24 04:20:00,
2013-07-24 00:25:00,59.7,20.8,28.94,NW,319,3.0,7.0,22,0.00,CLR,,0.00,WeatherDisplay:10.37,2013-07-24 04:25:00,
2013-07-24 00:30:00,59.7,20.8,28.94,NNW,327,2.0,6.0,22,0.00,CLR,,0.00,WeatherDisplay:10.37,2013-07-24 04:30:00,
2013-07-24 00:35:00,59.7,20.8,28.94,NNW,328,3.0,6.0,22,0.00,CLR,,0.00,WeatherDisplay:10.37,2013-07-24 04:35:00,
2013-07-24 00:40:00,59.7,20.7,28.94,NW,324,2.0,5.0,22,0.00,CLR,,0.00,WeatherDisplay:10.37,2013-07-24 04:40:00,
2013-07-24 00:50:00,59.0,22.2,28.94,NNW,327,0.0,3.0,24,0.00,CLR,,0.00,WeatherDisplay:10.37,2013-07-24 04:50:00,
2013-07-24 01:00:00,58.8,23.0,28.94,NNW,328,3.0,6.0,25,0.00,CLR,,0.00,WeatherDisplay:10.37,2013-07-24 05:00:00,
2013-07-24 01:05:00,58.6,22.9,28.94,NW,326,2.0,6.0,25,0.00,CLR,,0.00,WeatherDisplay:10.37,2013-07-24 05:05:00,
2013-07-24 01:15:00,58.3,22.6,28.94,NW,315,0.0,3.0,25,0.00,CLR,,0.00,WeatherDisplay:10.37,2013-07-24 05:15:00,
2013-07-24 01:20:00,58.1,22.4,28.94,NNW,327,0.0,0.0,25,0.00,CLR,,0.00,WeatherDisplay:10.37,2013-07-24 05:20:00,
2013-07-24 01:25:00,57.9,22.3,28.94,NNW,334,2.0,4.0,25,0.00,CLR,,0.00,WeatherDisplay:10.37,2013-07-24 05:25:00,
2013-07-24 01:35:00,57.7,22.1,28.94,NNW,345,0.0,4.0,25,0.00,CLR,,0.00,WeatherDisplay:10.37,2013-07-24 05:35:00,
2013-07-24 01:40:00,57.6,22.0,28.94,NNW,344,1.0,3.0,25,0.00,CLR,,0.00,WeatherDisplay:10.37,2013-07-24 05:40:00,
2013-07-24 01:45:00,57.4,21.8,28.94,NNW,338,0.0,3.0,25,0.00,CLR,,0.00,WeatherDisplay:10.37,2013-07-24 05:45:00,
2013-07-24 02:00:00,57.2,22.6,28.94,NW,323,0.0,3.0,26,0.00,CLR,,0.00,WeatherDisplay:10.37,2013-07-24 06:00:00,
2013-07-24 02:05:00,57.2,22.6,28.94,NNW,334,0.0,4.0,26,0.00,CLR,,0.00,WeatherDisplay:10.37,2013-07-24 06:05:00,
2013-07-24 02:10:00,57.2,22.6,28.94,NNW,343,0.0,4.0,26,0.00,CLR,,0.00,WeatherDisplay:10.37,2013-07-24 06:10:00,
2013-07-24 02:15:00,57.1,22.5,28.94,NNW,341,0.0,4.0,26,0.00,CLR,,0.00,WeatherDisplay:10.37,2013-07-24 06:15:00,
2013-07-24 02:20:00,57.0,22.4,28.94,NNW,338,0.0,3.0,26,0.00,CLR,,0.00,WeatherDisplay:10.37,2013-07-24 06:20:00,
2013-07-24 02:25:00,57.0,22.4,28.94,NNW,331,0.0,3.0,26,0.00,CLR,,0.00,WeatherDisplay:10.37,2013-07-24 06:25:00,
2013-07-24 02:30:00,57.0,22.4,28.94,NW,326,0.0,0.0,26,0.00,CLR,,0.00,WeatherDisplay:10.37,2013-07-24 06:30:00,
2013-07-24 02:35:00,57.2,22.6,28.94,NW,326,0.0,0.0,26,0.00,CLR,,0.00,WeatherDisplay:10.37,2013-07-24 06:35:00,
2013-07-24 02:40:00,57.2,22.6,28.94,NW,326,0.0,0.0,26,0.00,CLR,,0.00,WeatherDisplay:10.37,2013-07-24 06:40:00,
2013-07-24 02:45:00,57.4,22.7,28.94,NW,326,0.0,0.0,26,0.00,CLR,,0.00,WeatherDisplay:10.37,2013-07-24 06:45:00,
2013-07-24 02:50:00,57.4,22.7,28.94,NW,326,0.0,0.0,26,0.00,CLR,,0.00,WeatherDisplay:10.37,2013-07-24 06:50:00,
2013-07-24 02:55:00,57.4,22.7,28.94,NW,326,0.0,0.0,26,0.00,CLR,,0.00,WeatherDisplay:10.37,2013-07-24 06:55:00,
2013-07-24 03:00:00,57.4,22.7,28.94,NW,326,0.0,0.0,26,0.00,CLR,,0.00,WeatherDisplay:10.37,2013-07-24 07:00:00,
2013-07-24 03:05:00,57.4,22.7,28.94,NW,326,0.0,0.0,26,0.00,CLR,,0.00,WeatherDisplay:10.37,2013-07-24 07:05:00,
2013-07-24 03:10:00,57.4,22.7,28.94,NW,326,0.0,0.0,26,0.00,CLR,,0.00,WeatherDisplay:10.37,2013-07-24 07:10:00,
2013-07-24 03:20:00,57.4,22.7,28.94,NNW,338,0.0,0.0,26,0.00,CLR,,0.00,WeatherDisplay:10.37,2013-07-24 07:20:00,
2013-07-24 03:25:00,57.3,22.7,28.94,NNE,21,0.0,0.0,26,0.00,CLR,,0.00,WeatherDisplay:10.37,2013-07-24 07:25:00,
2013-07-24 03:30:00,57.2,22.6,28.94,ESE,111,0.0,0.0,26,0.00,CLR,,0.00,WeatherDisplay:10.37,2013-07-24 07:30:00,
2013-07-24 03:35:00,57.2,22.6,28.94,East,90,0.0,3.0,26,0.00,CLR,,0.00,WeatherDisplay:10.37,2013-07-24 07:35:00,
2013-07-24 03:40:00,57.2,22.6,28.94,NNE,28,0.0,0.0,26,0.00,CLR,,0.00,WeatherDisplay:10.37,2013-07-24 07:40:00,
2013-07-24 03:45:00,57.0,22.4,28.94,NNW,344,0.0,3.0,26,0.00,CLR,,0.00,WeatherDisplay:10.37,2013-07-24 07:45:00,
2013-07-24 03:50:00,57.0,22.4,28.94,North,5,0.0,0.0,26,0.00,CLR,,0.00,WeatherDisplay:10.37,2013-07-24 07:50:00,
2013-07-24 03:55:00,56.8,22.3,28.94,NNE,32,0.0,2.0,26,0.00,CLR,,0.00,WeatherDisplay:10.37,2013-07-24 07:55:00,
2013-07-24 04:00:00,56.8,22.3,28.94,NNE,32,0.0,0.0,26,0.00,CLR,,0.00,WeatherDisplay:10.37,2013-07-24 08:00:00,
2013-07-24 04:05:00,56.7,22.1,28.94,NNE,33,0.0,0.0,26,0.00,CLR,,0.00,WeatherDisplay:10.37,2013-07-24 08:05:00,
2013-07-24 04:10:00,56.7,22.1,28.94,NE,40,0.0,3.0,26,0.00,CLR,,0.00,WeatherDisplay:10.37,2013-07-24 08:10:00,
2013-07-24 04:15:00,56.7,22.1,28.94,NE,48,0.0,2.0,26,0.00,CLR,,0.00,WeatherDisplay:10.37,2013-07-24 08:15:00,
2013-07-24 04:30:00,56.3,21.8,28.94,ENE,71,0.0,0.0,26,0.00,CLR,,0.00,WeatherDisplay:10.37,2013-07-24 08:30:00,
2013-07-24 04:40:00,56.0,20.7,28.94,WSW,255,0.0,0.0,25,0.00,CLR,,0.00,WeatherDisplay:10.37,2013-07-24 08:40:00,
2013-07-24 04:45:00,55.9,20.6,28.94,West,259,0.0,0.0,25,0.00,CLR,,0.00,WeatherDisplay:10.37,2013-07-24 08:45:00,
2013-07-24 04:55:00,55.6,20.3,28.95,West,259,0.0,0.0,25,0.00,CLR,,0.00,WeatherDisplay:10.37,2013-07-24 08:55:00,
2013-07-24 05:00:00,55.4,20.1,28.97,West,259,0.0,0.0,25,0.00,CLR,,0.00,WeatherDisplay:10.37,2013-07-24 09:00:00,
2013-07-24 05:20:00,54.7,20.4,28.94,West,259,0.0,0.0,26,0.00,CLR,,0.00,WeatherDisplay:10.37,2013-07-24 09:20:00,
2013-07-24 05:25:00,54.5,20.3,28.96,West,259,0.0,0.0,26,0.00,CLR,,0.00,WeatherDisplay:10.37,2013-07-24 09:25:00,
2013-07-24 05:30:00,54.5,20.3,28.97,West,259,0.0,0.0,26,0.00,CLR,,0.00,WeatherDisplay:10.37,2013-07-24 09:30:00,
2013-07-24 05:35:00,54.3,20.1,28.97,West,259,0.0,0.0,26,0.00,CLR,,0.00,WeatherDisplay:10.37,2013-07-24 09:35:00,
2013-07-24 05:45:00,54.0,19.8,28.97,West,259,0.0,0.0,26,0.00,CLR,,0.00,WeatherDisplay:10.37,2013-07-24 09:45:00,
2013-07-24 05:50:00,53.8,19.7,28.97,West,259,0.0,0.0,26,0.00,CLR,,0.00,WeatherDisplay:10.37,2013-07-24 09:50:00,
2013-07-24 05:55:00,53.8,19.7,28.97,West,259,0.0,0.0,26,0.00,CLR,,0.00,WeatherDisplay:10.37,2013-07-24 09:55:00,
2013-07-24 06:00:00,53.6,19.5,28.97,West,260,0.0,0.0,26,0.00,CLR,,0.00,WeatherDisplay:10.37,2013-07-24 10:00:00,
2013-07-24 06:05:00,53.6,19.5,28.97,West,260,0.0,0.0,26,0.00,CLR,,0.00,WeatherDisplay:10.37,2013-07-24 10:05:00,
2013-07-24 06:10:00,53.4,19.3,28.97,West,260,0.0,0.0,26,0.00,CLR,,0.00,WeatherDisplay:10.37,2013-07-24 10:10:00,
2013-07-24 06:15:00,53.2,19.2,28.97,West,260,0.0,0.0,26,0.00,CLR,,0.00,WeatherDisplay:10.37,2013-07-24 10:15:00,
2013-07-24 06:20:00,53.1,19.0,28.97,West,260,0.0,0.0,26,0.00,CLR,,0.00,WeatherDisplay:10.37,2013-07-24 10:20:00,
2013-07-24 06:25:00,53.1,19.0,28.97,West,260,0.0,0.0,26,0.00,CLR,,0.00,WeatherDisplay:10.37,2013-07-24 10:25:00,
2013-07-24 06:30:00,53.1,19.0,28.97,West,260,0.0,0.0,26,0.00,CLR,,0.00,WeatherDisplay:10.37,2013-07-24 10:30:00,
2013-07-24 06:35:00,53.1,19.0,28.97,West,260,0.0,0.0,26,0.00,CLR,,0.00,WeatherDisplay:10.37,2013-07-24 10:35:00,
2013-07-24 06:40:00,53.1,19.0,28.97,West,260,0.0,0.0,26,0.00,CLR,,0.00,WeatherDisplay:10.37,2013-07-24 10:40:00,
2013-07-24 06:45:00,53.6,19.5,28.97,West,260,0.0,0.0,26,0.00,CLR,,0.00,WeatherDisplay:10.37,2013-07-24 10:45:00,
2013-07-24 06:50:00,55.4,20.1,28.97,West,260,0.0,0.0,25,0.00,CLR,,0.00,WeatherDisplay:10.37,2013-07-24 10:50:00,
2013-07-24 06:55:00,56.8,21.3,28.97,West,260,0.0,0.0,25,0.00,CLR,,0.00,WeatherDisplay:10.37,2013-07-24 10:55:00,
2013-07-24 07:00:00,58.9,22.1,28.97,West,260,0.0,0.0,24,0.00,CLR,,0.00,WeatherDisplay:10.37,2013-07-24 11:00:00,
2013-07-24 07:05:00,60.3,21.2,28.97,West,260,0.0,0.0,22,0.00,CLR,,0.00,WeatherDisplay:10.37,2013-07-24 11:05:00,
2013-07-24 07:10:00,62.3,21.8,28.97,West,260,0.0,0.0,21,0.00,CLR,,0.00,WeatherDisplay:10.37,2013-07-24 11:10:00,
2013-07-24 07:15:00,63.0,22.4,28.97,West,260,0.0,0.0,21,0.00,CLR,,0.00,WeatherDisplay:10.37,2013-07-24 11:15:00,
2013-07-24 07:20:00,64.1,19.7,28.97,West,260,0.0,0.0,18,0.00,CLR,,0.00,WeatherDisplay:10.37,2013-07-24 11:20:00,
2013-07-24 07:25:00,64.4,19.9,29.00,West,259,0.0,0.0,18,0.00,CLR,,0.00,WeatherDisplay:10.37,2013-07-24 11:25:00,
2013-07-24 07:30:00,63.9,19.5,29.00,West,259,0.0,0.0,18,0.00,CLR,,0.00,WeatherDisplay:10.37,2013-07-24 11:30:00,
2013-07-24 07:40:00,62.9,16.0,29.00,SE,134,0.0,4.0,16,0.00,CLR,,0.00,WeatherDisplay:10.37,2013-07-24 11:40:00,
2013-07-24 07:45:00,62.2,15.4,29.00,East,92,0.0,0.0,16,0.00,CLR,,0.00,WeatherDisplay:10.37,2013-07-24 11:45:00,
2013-07-24 07:50:00,61.7,15.0,29.00,ESE,105,0.0,3.0,16,0.00,CLR,,0.00,WeatherDisplay:10.37,2013-07-24 11:50:00,
2013-07-24 07:55:00,61.3,14.7,29.00,ENE,76,0.0,4.0,16,0.00,CLR,,0.00,WeatherDisplay:10.37,2013-07-24 11:55:00,
2013-07-24 08:00:00,60.8,14.3,29.00,NE,53,0.0,3.0,16,0.00,CLR,,0.00,WeatherDisplay:10.37,2013-07-24 12:00:00,
2013-07-24 08:05:00,60.3,15.2,29.00,ENE,59,0.0,4.0,17,0.00,CLR,,0.00,WeatherDisplay:10.37,2013-07-24 12:05:00,
2013-07-24 08:10:00,60.1,15.1,29.00,ENE,67,0.0,4.0,17,0.00,CLR,,0.00,WeatherDisplay:10.37,2013-07-24 12:10:00,
2013-07-24 08:20:00,60.3,15.2,29.00,ENE,68,0.0,4.0,17,0.00,CLR,,0.00,WeatherDisplay:10.37,2013-07-24 12:20:00,
2013-07-24 08:25:00,60.2,15.2,29.00,ENE,67,3.0,6.0,17,0.00,CLR,,0.00,WeatherDisplay:10.37,2013-07-24 12:25:00,
2013-07-24 08:40:00,60.8,14.3,29.00,ENE,72,2.0,6.0,16,0.00,CLR,,0.00,WeatherDisplay:10.37,2013-07-24 12:40:00,
2013-07-24 08:45:00,61.0,14.4,29.00,ENE,60,3.0,6.0,16,0.00,CLR,,0.00,WeatherDisplay:10.37,2013-07-24 12:45:00,
2013-07-24 08:55:00,62.9,15.9,29.01,ENE,60,3.0,6.0,16,0.00,CLR,,0.00,WeatherDisplay:10.37,2013-07-24 12:55:00,
2013-07-24 09:05:00,62.8,15.9,29.03,NE,55,1.0,8.0,16,0.00,CLR,,0.00,WeatherDisplay:10.37,2013-07-24 13:05:00,
2013-07-24 09:20:00,62.1,15.3,29.00,ENE,58,3.0,6.0,16,0.00,CLR,,0.00,WeatherDisplay:10.37,2013-07-24 13:20:00,
2013-07-24 09:40:00,64.4,15.7,29.01,ENE,62,6.0,8.0,15,0.00,CLR,,0.00,WeatherDisplay:10.37,2013-07-24 13:40:00,
2013-07-24 09:55:00,65.3,16.4,29.03,ENE,67,5.0,9.0,15,0.00,CLR,,0.00,WeatherDisplay:10.37,2013-07-24 13:55:00,
2013-07-24 10:00:00,65.6,16.7,29.03,ENE,62,5.0,8.0,15,0.00,CLR,,0.00,WeatherDisplay:10.37,2013-07-24 14:00:00,
2013-07-24 10:10:00,66.2,17.1,29.03,ENE,66,6.0,9.0,15,0.00,CLR,,0.00,WeatherDisplay:10.37,2013-07-24 14:10:00,
2013-07-24 10:15:00,66.2,17.1,29.03,ENE,61,7.0,10.0,15,0.00,CLR,,0.00,WeatherDisplay:10.37,2013-07-24 14:15:00,
2013-07-24 10:25:00,66.6,17.5,29.03,ENE,62,6.0,8.0,15,0.00,CLR,,0.00,WeatherDisplay:10.37,2013-07-24 14:25:00,
2013-07-24 10:30:00,66.9,17.7,29.03,NE,55,6.0,9.0,15,0.00,CLR,,0.00,WeatherDisplay:10.37,2013-07-24 14:30:00,
2013-07-24 10:35:00,66.4,17.3,29.03,ENE,58,5.0,11.0,15,0.00,CLR,,0.00,WeatherDisplay:10.37,2013-07-24 14:35:00,
2013-07-24 10:40:00,66.6,17.4,29.03,ENE,61,7.0,12.0,15,0.00,CLR,,0.00,WeatherDisplay:10.37,2013-07-24 14:40:00,
2013-07-24 10:45:00,67.0,17.7,29.03,ENE,58,7.0,11.0,15,0.00,CLR,,0.00,WeatherDisplay:10.37,2013-07-24 14:45:00,
2013-07-24 10:50:00,67.3,18.0,29.03,ENE,58,6.0,12.0,15,0.00,CLR,,0.00,WeatherDisplay:10.37,2013-07-24 14:50:00,
2013-07-24 11:00:00,68.2,18.7,29.03,ENE,63,7.0,9.0,15,0.00,CLR,,0.00,WeatherDisplay:10.37,2013-07-24 15:00:00,
2013-07-24 11:05:00,68.7,19.1,29.03,ENE,67,6.0,9.0,15,0.00,CLR,,0.00,WeatherDisplay:10.37,2013-07-24 15:05:00,
2013-07-24 11:10:00,69.4,19.7,29.03,ENE,66,5.0,9.0,15,0.00,CLR,,0.00,WeatherDisplay:10.37,2013-07-24 15:10:00,
2013-07-24 11:15:00,69.4,19.7,29.03,ENE,62,3.0,6.0,15,0.00,CLR,,0.00,WeatherDisplay:10.37,2013-07-24 15:15:00,
2013-07-24 11:25:00,69.3,19.6,29.03,ENE,69,2.0,8.0,15,0.00,CLR,,0.00,WeatherDisplay:10.37,2013-07-24 15:25:00,
2013-07-24 11:30:00,68.7,19.1,29.03,ENE,67,5.0,8.0,15,0.00,CLR,,0.00,WeatherDisplay:10.37,2013-07-24 15:30:00,
2013-07-24 11:40:00,69.3,19.6,29.03,ENE,63,5.0,8.0,15,0.00,CLR,,0.00,WeatherDisplay:10.37,2013-07-24 15:40:00,
2013-07-24 11:45:00,69.6,19.9,29.03,ENE,63,3.0,8.0,15,0.00,CLR,,0.00,WeatherDisplay:10.37,2013-07-24 15:45:00,
2013-07-24 11:55:00,70.2,18.7,29.03,ENE,66,5.0,8.0,14,0.00,CLR,,0.00,WeatherDisplay:10.37,2013-07-24 15:55:00,
2013-07-24 12:05:00,69.5,19.8,29.03,ENE,63,5.0,9.0,15,0.00,CLR,,0.00,WeatherDisplay:10.37,2013-07-24 16:05:00,
2013-07-24 12:10:00,69.6,19.9,29.06,NE,54,5.0,8.0,15,0.00,CLR,,0.00,WeatherDisplay:10.37,2013-07-24 16:10:00,
2013-07-24 12:20:00,69.1,19.4,29.06,ENE,67,5.0,8.0,15,0.00,CLR,,0.00,WeatherDisplay:10.37,2013-07-24 16:20:00,
2013-07-24 12:30:00,70.0,18.5,29.03,ENE,69,5.0,8.0,14,0.00,CLR,,0.00,WeatherDisplay:10.37,2013-07-24 16:30:00,
2013-07-24 12:35:00,69.3,19.6,29.03,ENE,69,3.0,6.0,15,0.00,CLR,,0.00,WeatherDisplay:10.37,2013-07-24 16:35:00,
2013-07-24 12:50:00,72.0,20.1,29.06,ENE,69,6.0,8.0,14,0.00,CLR,,0.00,WeatherDisplay:10.37,2013-07-24 16:50:00,
2013-07-24 12:55:00,72.7,20.7,29.03,ENE,65,2.0,9.0,14,0.00,CLR,,0.00,WeatherDisplay:10.37,2013-07-24 16:55:00,
2013-07-24 13:15:00,71.8,20.0,29.03,ENE,71,6.0,8.0,14,0.00,CLR,,0.00,WeatherDisplay:10.37,2013-07-24 17:15:00,
2013-07-24 13:20:00,71.0,19.3,29.03,ENE,70,1.0,6.0,14,0.00,CLR,,0.00,WeatherDisplay:10.37,2013-07-24 17:20:00,
2013-07-24 13:25:00,70.6,19.0,29.03,ENE,63,2.0,6.0,14,0.00,CLR,,0.00,WeatherDisplay:10.37,2013-07-24 17:25:00,
2013-07-24 13:30:00,69.9,18.5,29.03,ENE,64,2.0,6.0,14,0.00,CLR,,0.00,WeatherDisplay:10.37,2013-07-24 17:30:00,
2013-07-24 13:40:00,70.3,18.8,29.03,ENE,65,6.0,8.0,14,0.00,CLR,,0.00,WeatherDisplay:10.37,2013-07-24 17:40:00,
2013-07-24 13:50:00,70.5,19.0,29.03,ENE,64,3.0,9.0,14,0.00,CLR,,0.00,WeatherDisplay:10.37,2013-07-24 17:50:00,
2013-07-24 14:00:00,71.5,19.8,29.03,NE,51,2.0,7.0,14,0.00,CLR,,0.00,WeatherDisplay:10.37,2013-07-24 18:00:00,
2013-07-24 14:05:00,70.8,19.2,29.03,NE,51,3.0,6.0,14,0.00,CLR,,0.00,WeatherDisplay:10.37,2013-07-24 18:05:00,
2013-07-24 14:20:00,71.6,19.8,29.03,ENE,64,1.0,6.0,14,0.00,CLR,,0.00,WeatherDisplay:10.37,2013-07-24 18:20:00,
2013-07-24 14:25:00,72.7,20.7,29.03,ENE,67,5.0,6.0,14,0.00,CLR,,0.00,WeatherDisplay:10.37,2013-07-24 18:25:00,
2013-07-24 14:40:00,72.1,20.2,29.03,ENE,69,1.0,8.0,14,0.00,CLR,,0.00,WeatherDisplay:10.37,2013-07-24 18:40:00,
2013-07-24 14:50:00,72.1,20.3,29.03,ENE,65,5.0,8.0,14,0.00,CLR,,0.00,WeatherDisplay:10.37,2013-07-24 18:50:00,
2013-07-24 14:55:00,72.5,20.5,29.03,ENE,66,5.0,8.0,14,0.00,CLR,,0.00,WeatherDisplay:10.37,2013-07-24 18:55:00,
2013-07-24 15:05:00,72.5,20.6,29.03,ENE,61,2.0,12.0,14,0.00,CLR,,0.00,WeatherDisplay:10.37,2013-07-24 19:05:00,
2013-07-24 15:15:00,72.4,20.5,29.03,ENE,72,6.0,9.0,14,0.00,CLR,,0.00,WeatherDisplay:10.37,2013-07-24 19:15:00,
2013-07-24 15:20:00,72.8,20.8,29.03,ENE,71,6.0,10.0,14,0.00,CLR,,0.00,WeatherDisplay:10.37,2013-07-24 19:20:00,
2013-07-24 15:30:00,73.9,19.9,29.03,ENE,67,5.0,8.0,13,0.00,CLR,,0.00,WeatherDisplay:10.37,2013-07-24 19:30:00,
2013-07-24 15:40:00,73.3,21.2,29.03,ENE,62,0.0,6.0,14,0.00,CLR,,0.00,WeatherDisplay:10.37,2013-07-24 19:40:00,
2013-07-24 15:45:00,73.8,19.9,29.03,ENE,66,3.0,8.0,13,0.00,CLR,,0.00,WeatherDisplay:10.37,2013-07-24 19:45:00,
2013-07-24 15:50:00,72.9,20.9,29.03,ENE,63,6.0,8.0,14,0.00,CLR,,0.00,WeatherDisplay:10.37,2013-07-24 19:50:00,
2013-07-24 15:55:00,73.3,19.5,29.03,ENE,67,3.0,8.0,13,0.00,CLR,,0.00,WeatherDisplay:10.37,2013-07-24 19:55:00,
2013-07-24 16:05:00,74.2,20.1,29.03,NE,56,3.0,8.0,13,0.00,CLR,,0.00,WeatherDisplay:10.37,2013-07-24 20:05:00,
2013-07-24 16:10:00,73.0,21.0,29.03,NE,56,5.0,6.0,14,0.00,CLR,,0.00,WeatherDisplay:10.37,2013-07-24 20:10:00,
2013-07-24 16:15:00,72.9,20.9,29.03,ENE,69,1.0,6.0,14,0.00,CLR,,0.00,WeatherDisplay:10.37,2013-07-24 20:15:00,
2013-07-24 16:20:00,72.9,20.8,29.03,ENE,66,3.0,5.0,14,0.00,CLR,,0.00,WeatherDisplay:10.37,2013-07-24 20:20:00,
2013-07-24 16:25:00,73.5,19.6,29.03,ENE,64,3.0,6.0,13,0.00,CLR,,0.00,WeatherDisplay:10.37,2013-07-24 20:25:00,
2013-07-24 16:30:00,73.9,19.9,29.03,ENE,66,2.0,6.0,13,0.00,CLR,,0.00,WeatherDisplay:10.37,2013-07-24 20:30:00,
2013-07-24 16:35:00,73.0,21.0,29.03,ENE,65,3.0,6.0,14,0.00,CLR,,0.00,WeatherDisplay:10.37,2013-07-24 20:35:00,
2013-07-24 16:40:00,72.7,20.7,29.03,ENE,66,1.0,6.0,14,0.00,CLR,,0.00,WeatherDisplay:10.37,2013-07-24 20:40:00,
2013-07-24 16:45:00,73.9,21.7,29.03,ENE,69,3.0,4.0,14,0.00,CLR,,0.00,WeatherDisplay:10.37,2013-07-24 20:45:00,
2013-07-24 16:55:00,73.2,21.1,29.03,ENE,63,5.0,7.0,14,0.00,CLR,,0.00,WeatherDisplay:10.37,2013-07-24 20:55:00,
2013-07-24 17:00:00,72.2,20.3,29.03,ENE,62,0.0,6.0,14,0.00,CLR,,0.00,WeatherDisplay:10.37,2013-07-24 21:00:00,
2013-07-24 17:05:00,73.3,21.2,29.03,ENE,64,0.0,0.0,14,0.00,CLR,,0.00,WeatherDisplay:10.37,2013-07-24 21:05:00,
2013-07-24 17:10:00,74.6,25.4,29.03,ENE,58,3.0,8.0,16,0.00,CLR,,0.00,WeatherDisplay:10.37,2013-07-24 21:10:00,
2013-07-24 17:15:00,74.0,24.9,29.03,ENE,63,3.0,8.0,16,0.00,CLR,,0.00,WeatherDisplay:10.37,2013-07-24 21:15:00,
2013-07-24 17:20:00,72.7,20.7,29.03,ENE,64,3.0,6.0,14,0.00,CLR,,0.00,WeatherDisplay:10.37,2013-07-24 21:20:00,
2013-07-24 17:25:00,72.9,20.8,29.03,ENE,72,3.0,6.0,14,0.00,CLR,,0.00,WeatherDisplay:10.37,2013-07-24 21:25:00,
2013-07-24 17:30:00,73.6,24.6,29.03,ENE,72,3.0,6.0,16,0.00,CLR,,0.00,WeatherDisplay:10.37,2013-07-24 21:30:00,
2013-07-24 17:45:00,72.4,20.4,29.03,ENE,65,2.0,4.0,14,0.00,CLR,,0.00,WeatherDisplay:10.37,2013-07-24 21:45:00,
2013-07-24 17:50:00,73.2,22.8,29.03,ENE,76,3.0,6.0,15,0.00,CLR,,0.00,WeatherDisplay:10.37,2013-07-24 21:50:00,
2013-07-24 18:00:00,74.0,24.9,29.03,ENE,71,5.0,8.0,16,0.00,CLR,,0.00,WeatherDisplay:10.37,2013-07-24 22:00:00,
2013-07-24 18:05:00,72.4,20.5,29.03,ENE,65,3.0,6.0,14,0.00,CLR,,0.00,WeatherDisplay:10.37,2013-07-24 22:05:00,
2013-07-24 18:10:00,72.3,20.4,29.03,ENE,64,3.0,6.0,14,0.00,CLR,,0.00,WeatherDisplay:10.37,2013-07-24 22:10:00,
2013-07-24 18:20:00,73.6,24.6,29.03,ENE,66,5.0,7.0,16,0.00,CLR,,0.00,WeatherDisplay:10.37,2013-07-24 22:20:00,
2013-07-24 18:30:00,72.1,20.3,29.03,ENE,68,3.0,6.0,14,0.00,CLR,,0.00,WeatherDisplay:10.37,2013-07-24 22:30:00,
2013-07-24 18:40:00,72.9,24.0,29.03,ENE,62,2.0,5.0,16,0.00,CLR,,0.00,WeatherDisplay:10.37,2013-07-24 22:40:00,
2013-07-24 18:50:00,73.2,24.3,29.03,ENE,66,2.0,6.0,16,0.00,CLR,,0.00,WeatherDisplay:10.37,2013-07-24 22:50:00,
2013-07-24 18:55:00,73.4,24.4,29.03,ENE,66,3.0,6.0,16,0.00,CLR,,0.00,WeatherDisplay:10.37,2013-07-24 22:55:00,
2013-07-24 19:00:00,73.4,24.4,29.03,ENE,65,5.0,6.0,16,0.00,CLR,,0.00,WeatherDisplay:10.37,2013-07-24 23:00:00,
2013-07-24 19:10:00,71.6,19.8,29.03,ENE,66,3.0,5.0,14,0.00,CLR,,0.00,WeatherDisplay:10.37,2013-07-24 23:10:00,
2013-07-24 19:15:00,71.8,20.0,29.03,ENE,71,1.0,4.0,14,0.00,CLR,,0.00,WeatherDisplay:10.37,2013-07-24 23:15:00,
2013-07-24 19:25:00,72.7,23.9,29.03,ENE,75,0.0,3.0,16,0.00,CLR,,0.00,WeatherDisplay:10.37,2013-07-24 23:25:00,
2013-07-24 19:30:00,72.9,24.0,29.03,ENE,77,0.0,4.0,16,0.00,CLR,,0.00,WeatherDisplay:10.37,2013-07-24 23:30:00,
2013-07-24 19:40:00,72.9,24.1,29.03,ENE,75,5.0,6.0,16,0.00,CLR,,0.00,WeatherDisplay:10.37,2013-07-24 23:40:00,
2013-07-24 19:50:00,72.0,23.3,29.03,East,83,2.0,4.0,16,0.00,CLR,,0.00,WeatherDisplay:10.37,2013-07-24 23:50:00,
2013-07-24 19:55:00,71.8,23.1,29.03,ENE,76,2.0,5.0,16,0.00,CLR,,0.00,WeatherDisplay:10.37,2013-07-24 23:55:00,
2013-07-24 20:00:00,71.6,23.0,29.03,ENE,75,1.0,3.0,16,0.00,CLR,,0.00,WeatherDisplay:10.37,2013-07-25 00:00:00,
2013-07-24 20:05:00,71.6,23.0,29.03,East,79,0.0,4.0,16,0.00,CLR,,0.00,WeatherDisplay:10.37,2013-07-25 00:05:00,
2013-07-24 20:10:00,71.8,23.1,29.03,East,80,0.0,3.0,16,0.00,CLR,,0.00,WeatherDisplay:10.37,2013-07-25 00:10:00,
2013-07-24 20:20:00,71.4,24.3,29.03,ENE,75,0.0,0.0,17,0.00,CLR,,0.00,WeatherDisplay:10.37,2013-07-25 00:20:00,
2013-07-24 20:25:00,71.4,19.7,29.03,ENE,75,0.0,0.0,14,0.00,CLR,,0.00,WeatherDisplay:10.37,2013-07-25 00:25:00,
2013-07-24 20:35:00,71.3,19.6,29.03,ENE,75,0.0,0.0,14,0.00,CLR,,0.00,WeatherDisplay:10.37,2013-07-25 00:35:00,
2013-07-24 20:45:00,69.9,18.5,29.03,ENE,75,0.0,0.0,14,0.00,CLR,,0.00,WeatherDisplay:10.37,2013-07-25 00:45:00,
2013-07-24 20:50:00,69.0,19.4,29.03,ENE,75,0.0,0.0,15,0.00,CLR,,0.00,WeatherDisplay:10.37,2013-07-25 00:50:00,
2013-07-24 20:55:00,68.2,18.7,29.03,ENE,75,0.0,0.0,15,0.00,CLR,,0.00,WeatherDisplay:10.37,2013-07-25 00:55:00,
2013-07-24 21:05:00,66.7,17.6,29.03,ENE,75,0.0,0.0,15,0.00,CLR,,0.00,WeatherDisplay:10.37,2013-07-25 01:05:00,
2013-07-24 21:20:00,65.5,16.5,29.03,ENE,75,0.0,0.0,15,0.00,CLR,,0.00,WeatherDisplay:10.37,2013-07-25 01:20:00,
2013-07-24 21:25:00,64.8,16.0,29.03,ENE,75,0.0,0.0,15,0.00,CLR,,0.00,WeatherDisplay:10.37,2013-07-25 01:25:00,
2013-07-24 21:40:00,63.8,16.7,29.03,ENE,75,0.0,0.0,16,0.00,CLR,,0.00,WeatherDisplay:10.37,2013-07-25 01:40:00,
2013-07-24 22:20:00,61.7,19.0,29.06,ENE,75,0.0,0.0,19,0.00,CLR,,0.00,WeatherDisplay:10.37,2013-07-25 02:20:00,
2013-07-24 22:30:00,61.0,18.4,29.06,ENE,75,0.0,0.0,19,0.00,CLR,,0.00,WeatherDisplay:10.37,2013-07-25 02:30:00,
2013-07-24 22:40:00,60.6,18.1,29.06,ENE,75,0.0,0.0,19,0.00,CLR,,0.00,WeatherDisplay:10.37,2013-07-25 02:40:00,
2013-07-24 22:45:00,60.6,18.1,29.06,ENE,75,0.0,0.0,19,0.00,CLR,,0.00,WeatherDisplay:10.37,2013-07-25 02:45:00,
2013-07-24 22:50:00,60.3,17.8,29.06,ENE,75,0.0,0.0,19,0.00,CLR,,0.00,WeatherDisplay:10.37,2013-07-25 02:50:00,
2013-07-24 22:55:00,60.3,17.8,29.04,ENE,75,0.0,0.0,19,0.00,CLR,,0.00,WeatherDisplay:10.37,2013-07-25 02:55:00,
2013-07-24 23:00:00,60.0,17.6,29.03,ENE,75,0.0,0.0,19,0.00,CLR,,0.00,WeatherDisplay:10.37,2013-07-25 03:00:00,
2013-07-24 23:05:00,59.7,17.3,29.03,ENE,75,0.0,0.0,19,0.00,CLR,,0.00,WeatherDisplay:10.37,2013-07-25 03:05:00,
2013-07-24 23:15:00,59.5,17.2,29.06,ENE,75,0.0,0.0,19,0.00,CLR,,0.00,WeatherDisplay:10.37,2013-07-25 03:15:00,
2013-07-24 23:25:00,59.2,16.9,29.06,ENE,75,0.0,0.0,19,0.00,CLR,,0.00,WeatherDisplay:10.37,2013-07-25 03:25:00,
2013-07-24 23:35:00,58.9,16.7,29.06,ENE,75,0.0,0.0,19,0.00,CLR,,0.00,WeatherDisplay:10.37,2013-07-25 03:35:00,
2013-07-24 23:45:00,58.5,16.3,29.06,ENE,75,0.0,0.0,19,0.00,CLR,,0.00,WeatherDisplay:10.37,2013-07-25 03:45:00,
2013-07-24 23:50:00,58.2,16.1,29.06,ENE,75,0.0,0.0,19,0.00,CLR,,0.00,WeatherDisplay:10.37,2013-07-25 03:50:00,
2013-07-24 23:55:00,57.9,15.8,29.06,ENE,75,0.0,0.0,19,0.00,CLR,,0.00,WeatherDisplay:10.37,2013-07-25 03:55:00,